Time,TemperatureF,DewpointF,PressureIn,WindDirection,WindDirectionDegrees,WindSpeedMPH,WindSpeedGustMPH,Humidity,HourlyPrecipIn,Conditions,Clouds,dailyrainin,SoftwareType,DateUTC
2013-07-04 00:01:00,79.2,78.0,30.06,East,88,0.0,5.0,96,0.05,,---,0.21,VWS V14.01,2013-07-04 04:01:00,
2013-07-04 00:02:00,79.2,78.0,30.06,East,88,0.0,5.0,96,0.05,,---,0.21,VWS V14.01,2013-07-04 04:02:00,
2013-07-04 00:07:00,79.2,78.3,30.06,East,88,0.0,0.0,97,0.05,,---,0.00,VWS V14.01,2013-07-04 04:07:00,
2013-07-04 00:13:00,79.0,78.1,30.06,East,88,0.0,0.0,97,0.05,,---,0.00,VWS V14.01,2013-07-04 04:13:00,
2013-07-04 00:18:00,79.0,78.4,30.06,East,88,0.0,0.0,98,0.05,,---,0.00,VWS V14.01,2013-07-04 04:18:00,
2013-07-04 00:23:00,79.0,78.4,30.06,East,88,0.0,0.0,98,0.05,,---,0.00,VWS V14.01,2013-07-04 04:23:00,
2013-07-04 00:28:00,79.0,78.4,30.06,East,88,0.0,0.0,98,0.05,,---,0.00,VWS V14.01,2013-07-04 04:28:00,
2013-07-04 00:33:00,78.8,78.5,30.05,East,88,0.0,0.0,99,0.05,,---,0.00,VWS V14.01,2013-07-04 04:33:00,
2013-07-04 00:38:00,78.6,78.3,30.05,East,88,0.0,0.0,99,0.02,,---,0.00,VWS V14.01,2013-07-04 04:38:00,
2013-07-04 00:43:00,78.5,78.2,30.05,East,88,0.0,0.0,99,0.02,,---,0.00,VWS V14.01,2013-07-04 04:43:00,
2013-07-04 00:48:00,78.5,78.2,30.05,East,88,0.0,0.0,99,0.02,,---,0.00,VWS V14.01,2013-07-04 04:48:00,
2013-07-04 00:53:00,78.5,78.5,30.05,East,85,4.0,6.0,100,0.06,,---,0.04,VWS V14.01,2013-07-04 04:53:00,
2013-07-04 00:58:00,78.3,78.3,30.05,East,86,0.0,6.0,100,0.09,,---,0.07,VWS V14.01,2013-07-04 04:58:00,
2013-07-04 01:03:00,77.9,77.6,30.05,East,86,0.0,6.0,99,0.10,,---,0.08,VWS V14.01,2013-07-04 05:03:00,
2013-07-04 01:08:00,77.6,77.3,30.05,East,86,0.0,0.0,99,0.08,,---,0.08,VWS V14.01,2013-07-04 05:08:00,
2013-07-04 01:13:00,77.4,77.4,30.05,East,86,0.0,0.0,100,0.08,,---,0.08,VWS V14.01,2013-07-04 05:13:00,
2013-07-04 01:19:00,77.4,77.4,30.05,East,86,0.0,0.0,100,0.08,,---,0.08,VWS V14.01,2013-07-04 05:19:00,
2013-07-04 01:24:00,77.2,77.2,30.05,East,86,0.0,0.0,100,0.08,,---,0.08,VWS V14.01,2013-07-04 05:24:00,
2013-07-04 01:29:00,77.2,77.2,30.05,SE,136,0.0,5.0,100,0.08,,---,0.08,VWS V14.01,2013-07-04 05:29:00,
2013-07-04 01:34:00,76.7,76.7,30.05,SW,216,4.0,4.0,100,0.08,,---,0.08,VWS V14.01,2013-07-04 05:34:00,
2013-07-04 01:39:00,76.0,75.7,30.05,SSW,213,0.0,5.0,99,0.08,,---,0.08,VWS V14.01,2013-07-04 05:39:00,
2013-07-04 01:44:00,75.6,75.6,30.05,SSW,213,2.0,5.0,100,0.08,,---,0.08,VWS V14.01,2013-07-04 05:44:00,
2013-07-04 01:49:00,75.6,75.6,30.05,SSW,213,0.0,5.0,100,0.08,,---,0.08,VWS V14.01,2013-07-04 05:49:00,
2013-07-04 01:54:00,75.6,75.6,30.05,SSW,213,1.0,5.0,100,0.08,,---,0.08,VWS V14.01,2013-07-04 05:54:00,
2013-07-04 01:59:00,75.6,75.6,30.05,SSW,213,0.0,5.0,100,0.08,,---,0.08,VWS V14.01,2013-07-04 05:59:00,
2013-07-04 02:04:00,75.8,75.8,30.05,SSW,213,0.0,0.0,100,0.00,,---,0.08,VWS V14.01,2013-07-04 06:04:00,
2013-07-04 02:09:00,76.0,76.0,30.05,SSW,213,3.0,3.0,100,0.00,,---,0.08,VWS V14.01,2013-07-04 06:09:00,
2013-07-04 02:14:00,76.0,76.0,30.05,SSW,213,0.0,3.0,100,0.00,,---,0.08,VWS V14.01,2013-07-04 06:14:00,
2013-07-04 02:19:00,76.0,76.0,30.04,SSW,213,0.0,3.0,100,0.00,,---,0.08,VWS V14.01,2013-07-04 06:19:00,
2013-07-04 02:24:00,76.1,76.1,30.04,SSW,213,0.0,3.0,100,0.00,,---,0.08,VWS V14.01,2013-07-04 06:24:00,
2013-07-04 02:29:00,76.1,76.1,30.04,SSW,213,0.0,3.0,100,0.00,,---,0.08,VWS V14.01,2013-07-04 06:29:00,
2013-07-04 02:34:00,76.1,76.1,30.03,SSW,212,0.0,0.0,100,0.00,,---,0.08,VWS V14.01,2013-07-04 06:34:00,
2013-07-04 02:39:00,76.1,76.1,30.03,SSW,212,0.0,1.0,100,0.00,,---,0.08,VWS V14.01,2013-07-04 06:39:00,
2013-07-04 02:45:00,76.1,76.1,30.03,SSW,212,0.0,1.0,100,0.00,,---,0.08,VWS V14.01,2013-07-04 06:45:00,
2013-07-04 02:50:00,76.3,76.3,30.02,SSW,212,0.0,1.0,100,0.00,,---,0.08,VWS V14.01,2013-07-04 06:50:00,
2013-07-04 02:55:00,76.3,76.3,30.02,SSW,212,0.0,1.0,100,0.00,,---,0.08,VWS V14.01,2013-07-04 06:55:00,
2013-07-04 03:00:00,76.1,76.1,30.02,SSW,212,0.0,1.0,100,0.00,,---,0.08,VWS V14.01,2013-07-04 07:00:00,
2013-07-04 03:05:00,76.1,76.1,30.02,SSW,212,0.0,0.0,100,0.00,,---,0.08,VWS V14.01,2013-07-04 07:05:00,
2013-07-04 03:10:00,76.1,76.1,30.02,SSW,212,0.0,0.0,100,0.00,,---,0.08,VWS V14.01,2013-07-04 07:10:00,
2013-07-04 03:15:00,76.1,76.1,30.02,SSW,212,0.0,0.0,100,0.00,,---,0.08,VWS V14.01,2013-07-04 07:15:00,
2013-07-04 03:20:00,76.1,76.1,30.02,SSW,208,2.0,3.0,100,0.00,,---,0.08,VWS V14.01,2013-07-04 07:20:00,
2013-07-04 03:25:00,76.1,76.1,30.02,SSW,204,1.0,3.0,100,0.00,,---,0.08,VWS V14.01,2013-07-04 07:25:00,
2013-07-04 03:30:00,76.1,76.1,30.02,SSW,203,1.0,3.0,100,0.00,,---,0.08,VWS V14.01,2013-07-04 07:30:00,
2013-07-04 03:35:00,76.1,76.1,30.01,SSW,202,0.0,0.0,100,0.00,,---,0.08,VWS V14.01,2013-07-04 07:35:00,
2013-07-04 03:40:00,76.1,76.1,30.01,SSW,202,0.0,0.0,100,0.00,,---,0.08,VWS V14.01,2013-07-04 07:40:00,
2013-07-04 03:45:00,76.1,76.1,30.01,SSW,200,2.0,3.0,100,0.00,,---,0.08,VWS V14.01,2013-07-04 07:45:00,
2013-07-04 03:50:00,76.1,76.1,30.00,South,186,0.0,3.0,100,0.00,,---,0.08,VWS V14.01,2013-07-04 07:50:00,
2013-07-04 03:53:00,76.1,76.1,30.00,South,183,3.0,3.0,100,0.00,,---,0.08,VWS V14.01,2013-07-04 07:53:00,
2013-07-04 03:59:00,76.1,76.1,30.00,South,183,2.0,3.0,100,0.00,,---,0.08,VWS V14.01,2013-07-04 07:59:00,
2013-07-04 04:04:00,76.1,76.1,30.00,South,183,0.0,3.0,100,0.00,,---,0.08,VWS V14.01,2013-07-04 08:04:00,
2013-07-04 04:09:00,76.1,76.1,30.00,South,183,0.0,2.0,100,0.00,,---,0.08,VWS V14.01,2013-07-04 08:09:00,
2013-07-04 04:14:00,76.1,76.1,30.00,South,183,0.0,2.0,100,0.00,,---,0.08,VWS V14.01,2013-07-04 08:14:00,
2013-07-04 04:19:00,76.1,76.1,30.00,South,183,1.0,2.0,100,0.00,,---,0.08,VWS V14.01,2013-07-04 08:19:00,
2013-07-04 04:24:00,76.1,76.1,30.00,South,183,0.0,2.0,100,0.00,,---,0.08,VWS V14.01,2013-07-04 08:24:00,
2013-07-04 04:29:00,76.1,76.1,30.00,South,183,0.0,2.0,100,0.00,,---,0.08,VWS V14.01,2013-07-04 08:29:00,
2013-07-04 04:34:00,76.1,76.1,30.01,South,183,0.0,0.0,100,0.00,,---,0.08,VWS V14.01,2013-07-04 08:34:00,
2013-07-04 04:39:00,76.1,76.1,30.01,South,183,0.0,0.0,100,0.00,,---,0.08,VWS V14.01,2013-07-04 08:39:00,
2013-07-04 04:44:00,76.1,76.1,30.01,South,175,2.0,3.0,100,0.00,,---,0.08,VWS V14.01,2013-07-04 08:44:00,
2013-07-04 04:49:00,76.3,76.3,30.01,South,173,0.0,3.0,100,0.00,,---,0.08,VWS V14.01,2013-07-04 08:49:00,
2013-07-04 04:54:00,76.3,76.3,30.01,South,173,1.0,3.0,100,0.00,,---,0.08,VWS V14.01,2013-07-04 08:54:00,
2013-07-04 04:59:00,76.3,76.3,30.01,South,172,0.0,3.0,100,0.00,,---,0.08,VWS V14.01,2013-07-04 08:59:00,
2013-07-04 05:04:00,76.3,76.3,30.00,South,172,1.0,1.0,100,0.00,,---,0.08,VWS V14.01,2013-07-04 09:04:00,
2013-07-04 05:09:00,76.3,76.3,30.00,South,172,0.0,1.0,100,0.00,,---,0.08,VWS V14.01,2013-07-04 09:09:00,
2013-07-04 05:14:00,76.3,76.3,30.00,South,172,0.0,1.0,100,0.00,,---,0.08,VWS V14.01,2013-07-04 09:14:00,
2013-07-04 05:19:00,76.3,76.3,30.00,South,172,0.0,1.0,100,0.00,,---,0.08,VWS V14.01,2013-07-04 09:19:00,
2013-07-04 05:24:00,76.3,76.3,30.00,South,171,1.0,3.0,100,0.00,,---,0.08,VWS V14.01,2013-07-04 09:24:00,
2013-07-04 05:29:00,76.5,76.5,30.00,South,170,1.0,3.0,100,0.00,,---,0.08,VWS V14.01,2013-07-04 09:29:00,
2013-07-04 05:34:00,76.7,76.7,30.00,SSE,163,2.0,5.0,100,0.00,,---,0.08,VWS V14.01,2013-07-04 09:34:00,
2013-07-04 05:40:00,76.8,76.8,30.00,SSE,160,2.0,5.0,100,0.00,,---,0.08,VWS V14.01,2013-07-04 09:40:00,
2013-07-04 05:45:00,76.8,76.8,30.00,SSE,155,3.0,5.0,100,0.00,,---,0.08,VWS V14.01,2013-07-04 09:45:00,
2013-07-04 05:50:00,76.8,76.8,30.00,SE,145,1.0,5.0,100,0.00,,---,0.08,VWS V14.01,2013-07-04 09:50:00,
2013-07-04 05:55:00,77.0,77.0,30.00,SE,144,2.0,5.0,100,0.00,,---,0.08,VWS V14.01,2013-07-04 09:55:00,
2013-07-04 06:00:00,77.0,77.0,30.00,SE,142,4.0,5.0,100,0.00,,---,0.08,VWS V14.01,2013-07-04 10:00:00,
2013-07-04 06:05:00,77.2,77.2,30.00,SE,140,0.0,3.0,100,0.00,,---,0.08,VWS V14.01,2013-07-04 10:05:00,
2013-07-04 06:10:00,77.2,77.2,30.00,SE,134,1.0,4.0,100,0.00,,---,0.08,VWS V14.01,2013-07-04 10:10:00,
2013-07-04 06:15:00,77.4,77.4,30.00,SE,134,1.0,4.0,100,0.00,,---,0.08,VWS V14.01,2013-07-04 10:15:00,
2013-07-04 06:20:00,77.4,77.4,30.01,SE,133,0.0,4.0,100,0.00,,---,0.08,VWS V14.01,2013-07-04 10:20:00,
2013-07-04 06:25:00,77.6,77.6,30.01,SE,133,2.0,4.0,100,0.00,,---,0.08,VWS V14.01,2013-07-04 10:25:00,
2013-07-04 06:30:00,77.7,77.7,30.01,SE,132,0.0,4.0,100,0.00,,---,0.08,VWS V14.01,2013-07-04 10:30:00,
2013-07-04 06:35:00,77.9,77.6,30.02,East,96,6.0,6.0,99,0.00,,---,0.08,VWS V14.01,2013-07-04 10:35:00,
2013-07-04 06:40:00,77.9,77.6,30.02,East,101,7.0,7.0,99,0.00,,---,0.08,VWS V14.01,2013-07-04 10:40:00,
2013-07-04 06:45:00,78.1,77.5,30.02,ESE,105,6.0,7.0,98,0.00,,---,0.08,VWS V14.01,2013-07-04 10:45:00,
2013-07-04 06:50:00,78.3,77.4,30.02,ESE,107,7.0,7.0,97,0.00,,---,0.08,VWS V14.01,2013-07-04 10:50:00,
2013-07-04 06:55:00,78.5,77.3,30.02,ESE,107,2.0,7.0,96,0.00,,---,0.08,VWS V14.01,2013-07-04 10:55:00,
2013-07-04 07:00:00,78.6,77.4,30.02,ESE,107,1.0,7.0,96,0.00,,---,0.08,VWS V14.01,2013-07-04 11:00:00,
2013-07-04 07:05:00,78.8,77.2,30.02,ESE,107,1.0,3.0,95,0.00,,---,0.08,VWS V14.01,2013-07-04 11:05:00,
2013-07-04 07:10:00,79.0,77.1,30.02,ESE,112,2.0,8.0,94,0.00,,---,0.08,VWS V14.01,2013-07-04 11:10:00,
2013-07-04 07:15:00,79.2,77.0,30.02,ESE,110,3.0,8.0,93,0.00,,---,0.08,VWS V14.01,2013-07-04 11:15:00,
2013-07-04 07:21:00,79.4,77.2,30.02,ESE,109,6.0,8.0,93,0.00,,---,0.08,VWS V14.01,2013-07-04 11:21:00,
2013-07-04 07:26:00,79.8,77.3,30.02,ESE,108,4.0,10.0,92,0.00,,---,0.08,VWS V14.01,2013-07-04 11:26:00,
2013-07-04 07:31:00,80.1,77.2,30.02,ESE,105,2.0,10.0,91,0.00,,---,0.08,VWS V14.01,2013-07-04 11:31:00,
2013-07-04 07:36:00,80.5,77.3,30.03,ESE,105,3.0,6.0,90,0.00,,---,0.08,VWS V14.01,2013-07-04 11:36:00,
2013-07-04 07:41:00,80.9,77.7,30.03,ESE,108,1.0,8.0,90,0.00,,---,0.08,VWS V14.01,2013-07-04 11:41:00,
2013-07-04 07:46:00,81.2,77.7,30.03,East,96,11.0,11.0,89,0.00,,---,0.08,VWS V14.01,2013-07-04 11:46:00,
2013-07-04 07:51:00,81.6,77.4,30.03,ESE,122,6.0,11.0,87,0.00,,---,0.08,VWS V14.01,2013-07-04 11:51:00,
2013-07-04 07:56:00,81.8,77.2,30.03,ESE,108,3.0,11.0,86,0.00,,---,0.08,VWS V14.01,2013-07-04 11:56:00,
2013-07-04 08:01:00,82.0,77.1,30.03,ESE,115,1.0,11.0,85,0.01,,---,0.09,VWS V14.01,2013-07-04 12:01:00,
2013-07-04 08:06:00,82.4,77.4,30.04,East,90,2.0,5.0,85,0.01,,---,0.09,VWS V14.01,2013-07-04 12:06:00,
2013-07-04 08:11:00,82.6,77.6,30.04,ESE,107,4.0,10.0,85,0.01,,---,0.09,VWS V14.01,2013-07-04 12:11:00,
2013-07-04 08:16:00,82.8,77.1,30.04,ESE,117,5.0,11.0,83,0.01,,---,0.09,VWS V14.01,2013-07-04 12:16:00,
2013-07-04 08:21:00,83.0,77.3,30.04,ESE,110,3.0,11.0,83,0.01,,---,0.09,VWS V14.01,2013-07-04 12:21:00,
2013-07-04 08:26:00,83.4,77.3,30.04,ESE,105,4.0,11.0,82,0.01,,---,0.09,VWS V14.01,2013-07-04 12:26:00,
2013-07-04 08:31:00,83.6,77.5,30.04,ESE,121,5.0,11.0,82,0.01,,---,0.09,VWS V14.01,2013-07-04 12:31:00,
2013-07-04 08:36:00,83.6,77.2,30.05,ENE,59,11.0,11.0,81,0.01,,---,0.09,VWS V14.01,2013-07-04 12:36:00,
2013-07-04 08:41:00,83.8,77.3,30.05,SE,130,5.0,11.0,81,0.01,,---,0.09,VWS V14.01,2013-07-04 12:41:00,
2013-07-04 08:46:00,84.0,77.2,30.05,ESE,119,4.0,11.0,80,0.01,,---,0.09,VWS V14.01,2013-07-04 12:46:00,
2013-07-04 08:51:00,84.1,76.9,30.05,ESE,109,6.0,13.0,79,0.01,,---,0.09,VWS V14.01,2013-07-04 12:51:00,
2013-07-04 08:57:00,84.1,77.3,30.05,East,86,3.0,13.0,80,0.01,,---,0.09,VWS V14.01,2013-07-04 12:57:00,
2013-07-04 09:02:00,84.3,77.1,30.05,East,101,11.0,14.0,79,0.01,,---,0.09,VWS V14.01,2013-07-04 13:02:00,
2013-07-04 09:07:00,84.5,76.9,30.05,SE,129,9.0,10.0,78,0.00,,---,0.09,VWS V14.01,2013-07-04 13:07:00,
2013-07-04 09:12:00,84.7,76.3,30.05,ESE,111,10.0,11.0,76,0.00,,---,0.09,VWS V14.01,2013-07-04 13:12:00,
2013-07-04 09:17:00,85.1,76.7,30.05,East,92,6.0,11.0,76,0.00,,---,0.09,VWS V14.01,2013-07-04 13:17:00,
2013-07-04 09:22:00,85.3,76.5,30.05,ESE,109,5.0,11.0,75,0.00,,---,0.09,VWS V14.01,2013-07-04 13:22:00,
2013-07-04 09:27:00,85.3,76.5,30.05,ESE,116,9.0,11.0,75,0.00,,---,0.09,VWS V14.01,2013-07-04 13:27:00,
2013-07-04 09:32:00,85.5,75.9,30.05,East,81,11.0,14.0,73,0.00,,---,0.09,VWS V14.01,2013-07-04 13:32:00,
2013-07-04 09:37:00,85.7,76.5,30.06,ESE,112,2.0,12.0,74,0.00,,---,0.09,VWS V14.01,2013-07-04 13:37:00,
2013-07-04 09:42:00,85.5,76.3,30.06,ESE,113,6.0,12.0,74,0.00,,---,0.09,VWS V14.01,2013-07-04 13:42:00,
2013-07-04 09:47:00,85.5,75.9,30.06,East,87,5.0,12.0,73,0.00,,---,0.09,VWS V14.01,2013-07-04 13:47:00,
2013-07-04 09:52:00,85.5,75.9,30.06,ESE,118,10.0,12.0,73,0.00,,---,0.09,VWS V14.01,2013-07-04 13:52:00,
2013-07-04 09:57:00,85.5,74.6,30.06,ESE,113,7.0,12.0,70,0.00,,---,0.09,VWS V14.01,2013-07-04 13:57:00,
2013-07-04 10:02:00,85.7,75.2,30.06,East,100,7.0,12.0,71,0.00,,---,0.09,VWS V14.01,2013-07-04 14:02:00,
2013-07-04 10:07:00,86.3,75.8,30.06,SE,128,4.0,10.0,71,0.00,,---,0.09,VWS V14.01,2013-07-04 14:07:00,
2013-07-04 10:12:00,86.7,76.6,30.06,ESE,106,6.0,11.0,72,0.00,,---,0.09,VWS V14.01,2013-07-04 14:12:00,
2013-07-04 10:17:00,87.0,76.9,30.06,SE,142,3.0,11.0,72,0.00,,---,0.09,VWS V14.01,2013-07-04 14:17:00,
2013-07-04 10:22:00,87.0,75.6,30.06,SE,125,2.0,12.0,69,0.00,,---,0.09,VWS V14.01,2013-07-04 14:22:00,
2013-07-04 10:28:00,87.2,75.8,30.06,ESE,115,7.0,12.0,69,0.00,,---,0.09,VWS V14.01,2013-07-04 14:28:00,
2013-07-04 10:33:00,87.4,76.0,30.07,SE,143,3.0,13.0,69,0.00,,---,0.09,VWS V14.01,2013-07-04 14:33:00,
2013-07-04 10:38:00,87.6,75.7,30.07,ESE,119,5.0,11.0,68,0.00,,---,0.09,VWS V14.01,2013-07-04 14:38:00,
2013-07-04 10:43:00,87.8,76.4,30.07,ESE,103,4.0,11.0,69,0.00,,---,0.09,VWS V14.01,2013-07-04 14:43:00,
2013-07-04 10:48:00,88.2,76.8,30.07,SE,125,7.0,11.0,69,0.00,,---,0.09,VWS V14.01,2013-07-04 14:48:00,
2013-07-04 10:53:00,88.2,76.3,30.07,ESE,114,2.0,12.0,68,0.00,,---,0.09,VWS V14.01,2013-07-04 14:53:00,
2013-07-04 10:58:00,88.2,75.9,30.07,ESE,114,4.0,14.0,67,0.00,,---,0.09,VWS V14.01,2013-07-04 14:58:00,
2013-07-04 11:03:00,87.8,75.5,30.07,ESE,113,4.0,14.0,67,0.00,,---,0.09,VWS V14.01,2013-07-04 15:03:00,
2013-07-04 11:08:00,87.8,75.9,30.07,ESE,114,6.0,12.0,68,0.00,,---,0.09,VWS V14.01,2013-07-04 15:08:00,
2013-07-04 11:13:00,87.8,75.9,30.07,ESE,113,12.0,13.0,68,0.00,,---,0.09,VWS V14.01,2013-07-04 15:13:00,
2013-07-04 11:18:00,88.0,76.1,30.06,ESE,122,3.0,13.0,68,0.00,,---,0.09,VWS V14.01,2013-07-04 15:18:00,
2013-07-04 11:23:00,88.4,76.1,30.06,SE,141,5.0,13.0,67,0.00,,---,0.09,VWS V14.01,2013-07-04 15:23:00,
2013-07-04 11:28:00,88.4,75.6,30.06,ESE,120,10.0,13.0,66,0.00,,---,0.09,VWS V14.01,2013-07-04 15:28:00,
2013-07-04 11:33:00,88.6,76.7,30.07,ESE,119,3.0,14.0,68,0.00,,---,0.09,VWS V14.01,2013-07-04 15:33:00,
2013-07-04 11:38:00,88.6,75.8,30.07,ESE,117,6.0,11.0,66,0.00,,---,0.09,VWS V14.01,2013-07-04 15:38:00,
2013-07-04 11:43:00,88.6,76.2,30.07,SE,144,3.0,11.0,67,0.00,,---,0.09,VWS V14.01,2013-07-04 15:43:00,
2013-07-04 11:48:00,88.8,76.9,30.06,SE,130,2.0,12.0,68,0.00,,---,0.09,VWS V14.01,2013-07-04 15:48:00,
2013-07-04 11:53:00,88.8,76.4,30.06,SE,139,2.0,12.0,67,0.00,,---,0.09,VWS V14.01,2013-07-04 15:53:00,
2013-07-04 11:59:00,89.0,76.2,30.06,ESE,118,4.0,12.0,66,0.00,,---,0.09,VWS V14.01,2013-07-04 15:59:00,
2013-07-04 12:04:00,89.0,75.2,30.07,SE,127,3.0,12.0,64,0.00,,---,0.09,VWS V14.01,2013-07-04 16:04:00,
2013-07-04 12:09:00,88.8,75.5,30.07,SE,133,4.0,8.0,65,0.00,,---,0.09,VWS V14.01,2013-07-04 16:09:00,
2013-07-04 12:14:00,88.6,75.3,30.07,ESE,113,6.0,12.0,65,0.00,,---,0.09,VWS V14.01,2013-07-04 16:14:00,
2013-07-04 12:19:00,88.6,75.8,30.06,ESE,122,5.0,14.0,66,0.00,,---,0.09,VWS V14.01,2013-07-04 16:19:00,
2013-07-04 12:24:00,88.8,76.4,30.06,SE,143,12.0,14.0,67,0.00,,---,0.09,VWS V14.01,2013-07-04 16:24:00,
2013-07-04 12:29:00,88.8,75.1,30.06,SE,128,5.0,14.0,64,0.00,,---,0.09,VWS V14.01,2013-07-04 16:29:00,
2013-07-04 12:34:00,89.3,76.0,30.06,ESE,118,3.0,5.0,65,0.00,,---,0.09,VWS V14.01,2013-07-04 16:34:00,
2013-07-04 12:39:00,89.3,75.5,30.06,East,92,7.0,13.0,64,0.00,,---,0.09,VWS V14.01,2013-07-04 16:39:00,
2013-07-04 12:44:00,89.5,74.8,30.06,ESE,109,11.0,13.0,62,0.00,,---,0.09,VWS V14.01,2013-07-04 16:44:00,
2013-07-04 12:49:00,89.7,74.5,30.06,East,98,11.0,13.0,61,0.00,,---,0.09,VWS V14.01,2013-07-04 16:49:00,
2013-07-04 12:54:00,89.9,74.7,30.06,SE,127,7.0,13.0,61,0.00,,---,0.09,VWS V14.01,2013-07-04 16:54:00,
2013-07-04 12:59:00,90.3,73.5,30.06,ESE,104,4.0,13.0,58,0.00,,---,0.09,VWS V14.01,2013-07-04 16:59:00,
2013-07-04 13:04:00,90.3,72.5,30.06,ESE,121,8.0,8.0,56,0.00,,---,0.09,VWS V14.01,2013-07-04 17:04:00,
2013-07-04 13:09:00,90.5,74.2,30.06,SE,126,5.0,11.0,59,0.00,,---,0.09,VWS V14.01,2013-07-04 17:09:00,
2013-07-04 13:14:00,90.5,74.7,30.06,ENE,74,5.0,16.0,60,0.00,,---,0.09,VWS V14.01,2013-07-04 17:14:00,
2013-07-04 13:19:00,90.3,74.0,30.06,East,92,9.0,16.0,59,0.00,,---,0.09,VWS V14.01,2013-07-04 17:19:00,
2013-07-04 13:24:00,89.9,74.2,30.06,ESE,121,7.0,16.0,60,0.00,,---,0.09,VWS V14.01,2013-07-04 17:24:00,
2013-07-04 13:29:00,89.7,75.0,30.06,East,88,13.0,16.0,62,0.00,,---,0.09,VWS V14.01,2013-07-04 17:29:00,
2013-07-04 13:35:00,89.9,76.1,30.06,ESE,113,8.0,8.0,64,0.00,,---,0.09,VWS V14.01,2013-07-04 17:35:00,
2013-07-04 13:40:00,89.7,75.0,30.06,SE,134,13.0,13.0,62,0.00,,---,0.09,VWS V14.01,2013-07-04 17:40:00,
2013-07-04 13:45:00,89.5,74.3,30.06,ESE,118,15.0,15.0,61,0.00,,---,0.09,VWS V14.01,2013-07-04 17:45:00,
2013-07-04 13:50:00,89.0,73.3,30.05,East,98,4.0,15.0,60,0.00,,---,0.09,VWS V14.01,2013-07-04 17:50:00,
2013-07-04 13:55:00,89.3,75.5,30.05,ESE,109,7.0,15.0,64,0.00,,---,0.09,VWS V14.01,2013-07-04 17:55:00,
2013-07-04 14:00:00,89.5,75.7,30.05,SE,140,4.0,15.0,64,0.00,,---,0.09,VWS V14.01,2013-07-04 18:00:00,
2013-07-04 14:05:00,90.1,76.3,30.05,East,94,6.0,6.0,64,0.00,,---,0.09,VWS V14.01,2013-07-04 18:05:00,
2013-07-04 14:10:00,90.7,74.9,30.05,East,100,6.0,12.0,60,0.00,,---,0.09,VWS V14.01,2013-07-04 18:10:00,
2013-07-04 14:15:00,91.0,76.2,30.05,ESE,109,6.0,12.0,62,0.00,,---,0.09,VWS V14.01,2013-07-04 18:15:00,
2013-07-04 14:20:00,90.7,74.9,30.05,South,191,3.0,12.0,60,0.00,,---,0.09,VWS V14.01,2013-07-04 18:20:00,
2013-07-04 14:25:00,91.0,75.7,30.05,East,86,5.0,12.0,61,0.00,,---,0.09,VWS V14.01,2013-07-04 18:25:00,
2013-07-04 14:30:00,91.0,74.7,30.05,ENE,76,5.0,12.0,59,0.00,,---,0.09,VWS V14.01,2013-07-04 18:30:00,
2013-07-04 14:35:00,91.0,75.7,30.05,ESE,105,6.0,6.0,61,0.00,,---,0.09,VWS V14.01,2013-07-04 18:35:00,
2013-07-04 14:40:00,90.7,74.9,30.05,ESE,111,7.0,10.0,60,0.00,,---,0.09,VWS V14.01,2013-07-04 18:40:00,
2013-07-04 14:45:00,90.7,74.9,30.05,ESE,109,11.0,12.0,60,0.00,,---,0.09,VWS V14.01,2013-07-04 18:45:00,
2013-07-04 14:50:00,90.1,74.8,30.04,ESE,112,10.0,12.0,61,0.00,,---,0.09,VWS V14.01,2013-07-04 18:50:00,
2013-07-04 14:55:00,89.7,75.9,30.04,ESE,119,3.0,12.0,64,0.00,,---,0.09,VWS V14.01,2013-07-04 18:55:00,
2013-07-04 15:00:00,89.7,75.9,30.04,SE,136,5.0,12.0,64,0.00,,---,0.09,VWS V14.01,2013-07-04 19:00:00,
2013-07-04 15:06:00,89.9,76.1,30.03,ESE,103,14.0,14.0,64,0.00,,---,0.09,VWS V14.01,2013-07-04 19:06:00,
2013-07-04 15:11:00,89.7,75.9,30.03,SE,131,3.0,14.0,64,0.00,,---,0.09,VWS V14.01,2013-07-04 19:11:00,
2013-07-04 15:16:00,89.7,75.9,30.03,SE,125,4.0,14.0,64,0.00,,---,0.09,VWS V14.01,2013-07-04 19:16:00,
2013-07-04 15:21:00,89.7,75.9,30.03,East,98,10.0,14.0,64,0.00,,---,0.09,VWS V14.01,2013-07-04 19:21:00,
2013-07-04 15:26:00,89.7,75.9,30.03,SE,143,11.0,14.0,64,0.00,,---,0.09,VWS V14.01,2013-07-04 19:26:00,
2013-07-04 15:31:00,89.9,75.6,30.03,SE,130,4.0,14.0,63,0.00,,---,0.09,VWS V14.01,2013-07-04 19:31:00,
2013-07-04 15:36:00,89.5,75.7,30.03,SE,126,9.0,9.0,64,0.00,,---,0.09,VWS V14.01,2013-07-04 19:36:00,
2013-07-04 15:41:00,89.9,75.6,30.03,ESE,105,4.0,11.0,63,0.00,,---,0.09,VWS V14.01,2013-07-04 19:41:00,
2013-07-04 15:46:00,89.9,75.6,30.03,East,101,10.0,12.0,63,0.00,,---,0.09,VWS V14.01,2013-07-04 19:46:00,
2013-07-04 15:51:00,89.7,76.8,30.03,ESE,117,2.0,12.0,66,0.00,,---,0.09,VWS V14.01,2013-07-04 19:51:00,
2013-07-04 15:56:00,89.9,77.0,30.03,East,83,5.0,12.0,66,0.00,,---,0.09,VWS V14.01,2013-07-04 19:56:00,
2013-07-04 16:01:00,89.7,78.6,30.03,SE,128,2.0,12.0,70,0.00,,---,0.09,VWS V14.01,2013-07-04 20:01:00,
2013-07-04 16:06:00,88.4,77.4,30.03,ESE,110,1.0,6.0,70,0.00,,---,0.09,VWS V14.01,2013-07-04 20:06:00,
2013-07-04 16:11:00,87.6,77.9,30.03,ESE,113,4.0,6.0,73,0.00,,---,0.09,VWS V14.01,2013-07-04 20:11:00,
2013-07-04 16:16:00,87.2,77.5,30.03,SE,140,9.0,9.0,73,0.00,,---,0.09,VWS V14.01,2013-07-04 20:16:00,
2013-07-04 16:21:00,87.2,76.2,30.02,SSE,149,2.0,10.0,70,0.00,,---,0.09,VWS V14.01,2013-07-04 20:21:00,
2013-07-04 16:26:00,87.4,76.4,30.02,East,86,2.0,11.0,70,0.00,,---,0.09,VWS V14.01,2013-07-04 20:26:00,
2013-07-04 16:32:00,87.6,76.6,30.02,ENE,70,4.0,11.0,70,0.00,,---,0.09,VWS V14.01,2013-07-04 20:32:00,
2013-07-04 16:37:00,87.6,75.7,30.02,ESE,108,6.0,9.0,68,0.00,,---,0.09,VWS V14.01,2013-07-04 20:37:00,
2013-07-04 16:42:00,87.4,75.6,30.02,ESE,119,5.0,10.0,68,0.00,,---,0.09,VWS V14.01,2013-07-04 20:42:00,
2013-07-04 16:47:00,87.0,75.2,30.02,SE,139,5.0,12.0,68,0.00,,---,0.09,VWS V14.01,2013-07-04 20:47:00,
2013-07-04 16:52:00,87.0,75.6,30.01,SE,128,3.0,12.0,69,0.00,,---,0.09,VWS V14.01,2013-07-04 20:52:00,
2013-07-04 16:57:00,87.0,75.2,30.01,SE,134,3.0,12.0,68,0.00,,---,0.09,VWS V14.01,2013-07-04 20:57:00,
2013-07-04 17:02:00,87.2,74.9,30.01,SE,128,10.0,12.0,67,0.00,,---,0.09,VWS V14.01,2013-07-04 21:02:00,
2013-07-04 17:07:00,87.4,75.1,30.01,SE,129,2.0,11.0,67,0.00,,---,0.09,VWS V14.01,2013-07-04 21:07:00,
2013-07-04 17:12:00,87.8,74.6,30.01,SSE,151,11.0,11.0,65,0.00,,---,0.09,VWS V14.01,2013-07-04 21:12:00,
2013-07-04 17:17:00,87.8,75.5,30.01,SSE,148,4.0,14.0,67,0.00,,---,0.09,VWS V14.01,2013-07-04 21:17:00,
2013-07-04 17:22:00,88.0,75.7,30.01,ESE,109,6.0,14.0,67,0.00,,---,0.09,VWS V14.01,2013-07-04 21:22:00,
2013-07-04 17:27:00,88.4,75.6,30.01,SE,126,3.0,14.0,66,0.00,,---,0.09,VWS V14.01,2013-07-04 21:27:00,
2013-07-04 17:32:00,88.6,75.8,30.01,East,100,2.0,14.0,66,0.00,,---,0.09,VWS V14.01,2013-07-04 21:32:00,
2013-07-04 17:37:00,88.6,76.2,30.01,SE,125,11.0,11.0,67,0.00,,---,0.09,VWS V14.01,2013-07-04 21:37:00,
2013-07-04 17:42:00,88.6,76.2,30.01,ESE,107,2.0,11.0,67,0.00,,---,0.09,VWS V14.01,2013-07-04 21:42:00,
2013-07-04 17:47:00,88.4,76.1,30.02,SE,132,5.0,11.0,67,0.00,,---,0.09,VWS V14.01,2013-07-04 21:47:00,
2013-07-04 17:52:00,88.2,75.9,30.02,ESE,108,3.0,11.0,67,0.00,,---,0.09,VWS V14.01,2013-07-04 21:52:00,
2013-07-04 17:58:00,87.8,75.5,30.02,ESE,111,2.0,11.0,67,0.00,,---,0.09,VWS V14.01,2013-07-04 21:58:00,
2013-07-04 18:03:00,87.6,75.3,30.02,ESE,108,3.0,11.0,67,0.00,,---,0.09,VWS V14.01,2013-07-04 22:03:00,
2013-07-04 18:08:00,87.6,75.7,30.02,ENE,65,4.0,9.0,68,0.00,,---,0.09,VWS V14.01,2013-07-04 22:08:00,
2013-07-04 18:13:00,87.6,75.7,30.02,East,98,3.0,9.0,68,0.00,,---,0.09,VWS V14.01,2013-07-04 22:13:00,
2013-07-04 18:18:00,87.6,75.7,30.02,ESE,108,0.0,10.0,68,0.00,,---,0.09,VWS V14.01,2013-07-04 22:18:00,
2013-07-04 18:23:00,87.8,75.9,30.02,ESE,119,4.0,10.0,68,0.00,,---,0.09,VWS V14.01,2013-07-04 22:23:00,
2013-07-04 18:28:00,87.6,75.3,30.02,ESE,103,2.0,10.0,67,0.00,,---,0.09,VWS V14.01,2013-07-04 22:28:00,
2013-07-04 18:33:00,87.2,75.8,30.02,East,92,6.0,10.0,69,0.00,,---,0.09,VWS V14.01,2013-07-04 22:33:00,
2013-07-04 18:38:00,86.7,75.3,30.02,East,100,5.0,6.0,69,0.00,,---,0.09,VWS V14.01,2013-07-04 22:38:00,
2013-07-04 18:44:00,86.3,74.9,30.02,ESE,114,1.0,10.0,69,0.00,,---,0.09,VWS V14.01,2013-07-04 22:44:00,
2013-07-04 18:49:00,86.1,75.2,30.01,East,88,4.0,10.0,70,0.00,,---,0.09,VWS V14.01,2013-07-04 22:49:00,
2013-07-04 18:54:00,86.1,75.2,30.01,ESE,105,5.0,10.0,70,0.00,,---,0.09,VWS V14.01,2013-07-04 22:54:00,
2013-07-04 18:59:00,85.9,75.0,30.01,East,94,1.0,10.0,70,0.00,,---,0.09,VWS V14.01,2013-07-04 22:59:00,
2013-07-04 19:04:00,86.1,75.2,30.02,SE,128,5.0,9.0,70,0.00,,---,0.09,VWS V14.01,2013-07-04 23:04:00,
2013-07-04 19:09:00,86.1,75.2,30.02,East,92,4.0,9.0,70,0.00,,---,0.09,VWS V14.01,2013-07-04 23:09:00,
2013-07-04 19:14:00,86.1,75.2,30.02,ESE,113,5.0,11.0,70,0.00,,---,0.09,VWS V14.01,2013-07-04 23:14:00,
2013-07-04 19:19:00,85.9,75.4,30.02,ESE,111,4.0,11.0,71,0.00,,---,0.09,VWS V14.01,2013-07-04 23:19:00,
2013-07-04 19:24:00,85.7,75.6,30.02,East,95,1.0,11.0,72,0.00,,---,0.09,VWS V14.01,2013-07-04 23:24:00,
2013-07-04 19:29:00,85.5,75.4,30.02,East,82,9.0,11.0,72,0.00,,---,0.09,VWS V14.01,2013-07-04 23:29:00,
2013-07-04 19:34:00,85.3,75.7,30.03,ESE,106,5.0,5.0,73,0.00,,---,0.09,VWS V14.01,2013-07-04 23:34:00,
2013-07-04 19:39:00,84.9,74.9,30.03,East,83,3.0,7.0,72,0.00,,---,0.09,VWS V14.01,2013-07-04 23:39:00,
2013-07-04 19:44:00,84.7,75.1,30.03,ESE,113,3.0,7.0,73,0.00,,---,0.09,VWS V14.01,2013-07-04 23:44:00,
2013-07-04 19:49:00,84.5,75.3,30.03,SE,129,3.0,7.0,74,0.00,,---,0.09,VWS V14.01,2013-07-04 23:49:00,
2013-07-04 19:54:00,84.3,75.1,30.03,ESE,104,3.0,7.0,74,0.00,,---,0.09,VWS V14.01,2013-07-04 23:54:00,
2013-07-04 19:59:00,84.3,75.5,30.03,East,87,4.0,7.0,75,0.00,,---,0.09,VWS V14.01,2013-07-04 23:59:00,
2013-07-04 20:04:00,84.1,75.3,30.04,East,99,5.0,5.0,75,0.00,,---,0.09,VWS V14.01,2013-07-05 00:04:00,
2013-07-04 20:09:00,84.1,75.3,30.04,ESE,115,6.0,7.0,75,0.00,,---,0.09,VWS V14.01,2013-07-05 00:09:00,
2013-07-04 20:14:00,84.0,75.6,30.04,ESE,109,4.0,7.0,76,0.00,,---,0.09,VWS V14.01,2013-07-05 00:14:00,
2013-07-04 20:20:00,84.0,76.0,30.03,ESE,102,2.0,11.0,77,0.00,,---,0.09,VWS V14.01,2013-07-05 00:20:00,
2013-07-04 20:25:00,83.8,76.2,30.03,East,87,5.0,11.0,78,0.00,,---,0.09,VWS V14.01,2013-07-05 00:25:00,
2013-07-04 20:30:00,83.8,76.2,30.03,East,98,3.0,11.0,78,0.00,,---,0.09,VWS V14.01,2013-07-05 00:30:00,
2013-07-04 20:35:00,83.6,76.4,30.04,East,91,2.0,6.0,79,0.00,,---,0.09,VWS V14.01,2013-07-05 00:35:00,
2013-07-04 20:40:00,83.6,76.4,30.04,ESE,106,2.0,7.0,79,0.00,,---,0.09,VWS V14.01,2013-07-05 00:40:00,
2013-07-04 20:45:00,83.4,76.2,30.04,East,88,5.0,7.0,79,0.00,,---,0.09,VWS V14.01,2013-07-05 00:45:00,
2013-07-04 20:50:00,83.4,76.2,30.05,ESE,103,4.0,7.0,79,0.00,,---,0.09,VWS V14.01,2013-07-05 00:50:00,
2013-07-04 20:55:00,83.2,76.0,30.05,ESE,115,6.0,7.0,79,0.00,,---,0.09,VWS V14.01,2013-07-05 00:55:00,
2013-07-04 21:00:00,83.2,76.0,30.05,ESE,113,1.0,7.0,79,0.00,,---,0.09,VWS V14.01,2013-07-05 01:00:00,
2013-07-04 21:06:00,83.0,75.4,30.05,ESE,114,4.0,5.0,78,0.00,,---,0.09,VWS V14.01,2013-07-05 01:06:00,
2013-07-04 21:11:00,83.0,75.4,30.05,ESE,115,3.0,5.0,78,0.00,,---,0.09,VWS V14.01,2013-07-05 01:11:00,
2013-07-04 21:16:00,82.8,75.2,30.05,East,98,5.0,9.0,78,0.00,,---,0.09,VWS V14.01,2013-07-05 01:16:00,
2013-07-04 21:21:00,82.8,75.2,30.06,East,101,2.0,9.0,78,0.00,,---,0.09,VWS V14.01,2013-07-05 01:21:00,
2013-07-04 21:26:00,82.8,75.2,30.06,ESE,109,4.0,10.0,78,0.00,,---,0.09,VWS V14.01,2013-07-05 01:26:00,
2013-07-04 21:31:00,82.8,75.2,30.06,SE,130,1.0,10.0,78,0.00,,---,0.09,VWS V14.01,2013-07-05 01:31:00,
2013-07-04 21:36:00,82.8,75.2,30.07,SE,126,2.0,4.0,78,0.00,,---,0.09,VWS V14.01,2013-07-05 01:36:00,
2013-07-04 21:41:00,82.8,75.6,30.07,East,97,2.0,6.0,79,0.00,,---,0.09,VWS V14.01,2013-07-05 01:41:00,
2013-07-04 21:46:00,82.8,75.6,30.07,East,100,2.0,6.0,79,0.00,,---,0.09,VWS V14.01,2013-07-05 01:46:00,
2013-07-04 21:51:00,82.8,76.0,30.07,ESE,123,4.0,9.0,80,0.00,,---,0.09,VWS V14.01,2013-07-05 01:51:00,
2013-07-04 21:56:00,82.8,76.0,30.07,ESE,122,3.0,9.0,80,0.00,,---,0.09,VWS V14.01,2013-07-05 01:56:00,
2013-07-04 22:01:00,82.8,76.4,30.07,ESE,104,6.0,9.0,81,0.00,,---,0.09,VWS V14.01,2013-07-05 02:01:00,
2013-07-04 22:06:00,82.8,76.4,30.08,East,91,2.0,4.0,81,0.00,,---,0.09,VWS V14.01,2013-07-05 02:06:00,
2013-07-04 22:11:00,82.6,76.2,30.08,ESE,108,4.0,6.0,81,0.00,,---,0.09,VWS V14.01,2013-07-05 02:11:00,
2013-07-04 22:16:00,82.6,76.2,30.08,SE,128,6.0,6.0,81,0.00,,---,0.09,VWS V14.01,2013-07-05 02:16:00,
2013-07-04 22:21:00,81.8,71.5,30.09,South,180,1.0,6.0,71,0.00,,---,0.09,VWS V14.01,2013-07-05 02:21:00,
2013-07-04 22:26:00,81.2,72.1,30.09,SSE,155,2.0,6.0,74,0.01,,---,0.10,VWS V14.01,2013-07-05 02:26:00,
2013-07-04 22:32:00,80.1,71.9,30.09,SE,124,4.0,7.0,76,0.01,,---,0.10,VWS V14.01,2013-07-05 02:32:00,
2013-07-04 22:37:00,78.6,71.9,30.09,SE,132,6.0,9.0,80,0.03,,---,0.12,VWS V14.01,2013-07-05 02:37:00,
2013-07-04 22:42:00,77.7,72.5,30.09,SE,129,1.0,9.0,84,0.03,,---,0.12,VWS V14.01,2013-07-05 02:42:00,
2013-07-04 22:47:00,77.2,73.0,30.09,SE,128,2.0,9.0,87,0.03,,---,0.12,VWS V14.01,2013-07-05 02:47:00,
2013-07-04 22:52:00,76.7,73.2,30.09,SE,128,1.0,9.0,89,0.03,,---,0.12,VWS V14.01,2013-07-05 02:52:00,
2013-07-04 22:57:00,76.5,73.3,30.09,SE,128,2.0,9.0,90,0.03,,---,0.12,VWS V14.01,2013-07-05 02:57:00,
2013-07-04 23:02:00,76.1,73.6,30.09,SE,128,0.0,9.0,92,0.03,,---,0.12,VWS V14.01,2013-07-05 03:02:00,
2013-07-04 23:07:00,76.0,73.8,30.09,SE,128,0.0,2.0,93,0.03,,---,0.12,VWS V14.01,2013-07-05 03:07:00,
2013-07-04 23:12:00,76.0,74.2,30.09,SE,128,0.0,2.0,94,0.04,,---,0.13,VWS V14.01,2013-07-05 03:12:00,
2013-07-04 23:17:00,75.8,73.9,30.09,SE,128,0.0,2.0,94,0.04,,---,0.13,VWS V14.01,2013-07-05 03:17:00,
2013-07-04 23:22:00,75.6,74.1,30.09,SE,128,0.0,2.0,95,0.04,,---,0.13,VWS V14.01,2013-07-05 03:22:00,
2013-07-04 23:27:00,75.6,74.4,30.09,SE,128,0.0,2.0,96,0.04,,---,0.13,VWS V14.01,2013-07-05 03:27:00,
2013-07-04 23:32:00,75.6,74.4,30.08,SE,128,1.0,3.0,96,0.04,,---,0.13,VWS V14.01,2013-07-05 03:32:00,
2013-07-04 23:37:00,75.6,74.7,30.08,SE,128,0.0,0.0,97,0.02,,---,0.13,VWS V14.01,2013-07-05 03:37:00,
2013-07-04 23:43:00,75.6,74.7,30.08,SE,128,0.0,0.0,97,0.02,,---,0.13,VWS V14.01,2013-07-05 03:43:00,
2013-07-04 23:48:00,75.6,74.7,30.08,SE,128,0.0,2.0,97,0.02,,---,0.13,VWS V14.01,2013-07-05 03:48:00,
2013-07-04 23:53:00,75.6,75.0,30.08,SE,128,0.0,2.0,98,0.02,,---,0.13,VWS V14.01,2013-07-05 03:53:00,
2013-07-04 23:58:00,75.8,75.2,30.08,SE,128,0.0,2.0,98,0.02,,---,0.13,VWS V14.01,2013-07-05 03:58:00,